Time;durP1;ratioP1;P1;durP2;ratioP2;P2;SDS_P1;SDS_P2;PMS_P1;PMS_P2;Temp;Humidity;BMP_temperature;BMP_pressure;BME280_temperature;BME280_humidity;BME280_pressure;Samples;Min_cycle;Max_cycle;Signal;HPM_P1;HPM_P2
2022/03/07 00:01:25;;;;;;;15.35;11.40;;;3.40;99.90;;;;;;5051728;28;20045;-77
2022/03/07 00:03:54;;;;;;;13.10;9.50;;;3.30;99.90;;;;;;5052538;28;20592;-77
2022/03/07 00:06:22;;;;;;;10.57;9.35;;;3.30;99.90;;;;;;5034934;28;20137;-72
2022/03/07 00:08:49;;;;;;;11.88;9.40;;;3.30;99.90;;;;;;5052650;28;20467;-73
2022/03/07 00:11:17;;;;;;;11.00;9.15;;;3.20;99.90;;;;;;5052281;28;20417;-71
2022/03/07 00:13:45;;;;;;;13.23;9.95;;;3.20;99.90;;;;;;5052471;28;20041;-71
2022/03/07 00:16:13;;;;;;;11.02;8.90;;;3.20;99.90;;;;;;5052134;28;20469;-72
2022/03/07 00:18:41;;;;;;;12.13;9.95;;;3.20;99.90;;;;;;5051030;28;20107;-76
2022/03/07 00:21:08;;;;;;;10.45;8.07;;;3.20;99.90;;;;;;5052399;28;20408;-71
2022/03/07 00:23:36;;;;;;;11.00;8.75;;;3.10;99.90;;;;;;5052365;28;20047;-74
2022/03/07 00:26:05;;;;;;;10.38;8.60;;;3.20;99.90;;;;;;5050950;28;20703;-79
2022/03/07 00:28:32;;;;;;;11.10;8.85;;;3.20;99.90;;;;;;5070167;28;20044;-74
2022/03/07 00:31:00;;;;;;;10.27;8.70;;;3.10;99.90;;;;;;5072225;28;20044;-72
2022/03/07 00:33:27;;;;;;;12.25;7.90;;;3.30;99.90;;;;;;5054450;28;20119;-81
2022/03/07 00:35:54;;;;;;;8.77;7.70;;;3.30;99.90;;;;;;5051692;28;20551;-78
2022/03/07 00:38:22;;;;;;;10.48;7.38;;;3.30;99.90;;;;;;5052094;28;20037;-78
2022/03/07 00:40:49;;;;;;;10.23;7.47;;;3.30;99.90;;;;;;5051831;28;20067;-78
2022/03/07 00:43:18;;;;;;;10.63;8.02;;;3.20;99.90;;;;;;5050793;28;20577;-76
2022/03/07 00:45:45;;;;;;;8.93;7.38;;;3.50;99.90;;;;;;5052066;28;20040;-79
2022/03/07 00:48:14;;;;;;;10.40;7.78;;;3.60;99.90;;;;;;5034161;28;20481;-75
2022/03/07 00:50:47;;;;;;;9.15;7.70;;;3.70;99.90;;;;;;5051989;28;20041;-71
2022/03/07 00:53:17;;;;;;;10.20;7.75;;;3.60;99.90;;;;;;5050194;28;20045;-73
2022/03/07 00:55:44;;;;;;;9.00;7.82;;;3.80;99.90;;;;;;5050952;28;20056;-71
2022/03/07 00:58:12;;;;;;;9.98;7.72;;;3.80;99.90;;;;;;5052085;28;20056;-71
2022/03/07 01:00:40;;;;;;;10.00;7.38;;;3.80;99.90;;;;;;5051573;28;20418;-73
2022/03/07 01:03:11;;;;;;;8.43;7.32;;;3.60;99.90;;;;;;5050188;28;20439;-72
2022/03/07 01:05:44;;;;;;;8.38;7.22;;;3.60;99.90;;;;;;5050850;28;20072;-73
2022/03/07 01:08:11;;;;;;;8.70;7.15;;;3.50;99.90;;;;;;5051703;28;20366;-73
2022/03/07 01:10:39;;;;;;;9.70;7.45;;;3.60;99.90;;;;;;5051408;28;20112;-76
2022/03/07 01:13:07;;;;;;;9.40;7.50;;;3.60;99.90;;;;;;5051802;28;20041;-70
2022/03/07 01:15:34;;;;;;;8.13;6.80;;;3.60;99.90;;;;;;5051239;28;20041;-75
2022/03/07 01:18:04;;;;;;;12.48;7.03;;;3.50;99.90;;;;;;5051291;28;20149;-71
2022/03/07 01:20:32;;;;;;;8.60;6.72;;;3.30;99.90;;;;;;5051138;28;20095;-74
2022/03/07 01:22:59;;;;;;;7.57;6.30;;;3.20;99.90;;;;;;5051233;28;20040;-74
2022/03/07 01:25:27;;;;;;;8.57;6.47;;;3.20;99.90;;;;;;5052770;28;20037;-75
2022/03/07 01:27:54;;;;;;;8.25;6.82;;;3.10;99.90;;;;;;5070934;28;20040;-73
2022/03/07 01:30:22;;;;;;;7.35;6.47;;;3.20;99.90;;;;;;5071108;28;20037;-77
2022/03/07 01:32:52;;;;;;;6.82;6.10;;;3.20;99.90;;;;;;5071396;28;20506;-72
2022/03/07 01:35:22;;;;;;;7.40;5.97;;;3.30;99.90;;;;;;5070947;28;20041;-76
2022/03/07 01:37:50;;;;;;;9.95;6.60;;;3.20;99.90;;;;;;5071453;28;20047;-76
2022/03/07 01:40:17;;;;;;;8.50;6.60;;;3.30;99.90;;;;;;5087469;28;20065;-72
2022/03/07 01:42:45;;;;;;;8.88;6.22;;;3.40;99.90;;;;;;5071996;28;20045;-77
2022/03/07 01:45:18;;;;;;;6.25;5.53;;;3.50;99.90;;;;;;5071882;28;20040;-71
2022/03/07 01:47:46;;;;;;;8.35;6.68;;;3.40;99.90;;;;;;5071735;28;20068;-86
2022/03/07 01:50:16;;;;;;;7.75;6.20;;;3.60;99.90;;;;;;5071968;28;20044;-72
2022/03/07 01:52:44;;;;;;;7.60;6.13;;;3.50;99.90;;;;;;5075681;28;20040;-73
2022/03/07 01:55:12;;;;;;;7.75;6.03;;;3.60;99.90;;;;;;5075341;28;20127;-75
2022/03/07 01:57:42;;;;;;;7.10;6.10;;;3.40;99.90;;;;;;5075656;28;20478;-71
2022/03/07 02:00:15;;;;;;;10.43;6.40;;;3.40;99.90;;;;;;5075349;28;20033;-71
2022/03/07 02:02:43;;;;;;;7.18;5.53;;;3.50;99.90;;;;;;5075612;28;20499;-84
2022/03/07 02:05:11;;;;;;;9.20;7.53;;;3.40;99.90;;;;;;5075551;28;20408;-73
2022/03/07 02:07:40;;;;;;;8.10;5.85;;;3.30;99.90;;;;;;5075273;28;20036;-76
2022/03/07 02:10:08;;;;;;;8.18;6.95;;;3.10;99.90;;;;;;5075396;28;20438;-71
2022/03/07 02:12:36;;;;;;;9.68;7.40;;;3.10;99.90;;;;;;5075853;28;20052;-74
2022/03/07 02:15:05;;;;;;;9.20;6.28;;;3.20;99.90;;;;;;5074015;28;20036;-77
2022/03/07 02:17:35;;;;;;;8.95;7.53;;;3.20;99.90;;;;;;5075150;28;20132;-81
2022/03/07 02:20:04;;;;;;;8.38;7.53;;;3.20;99.90;;;;;;5074911;28;20127;-83
2022/03/07 02:22:32;;;;;;;8.93;7.28;;;3.20;99.90;;;;;;5074674;28;20067;-73
2022/03/07 02:24:59;;;;;;;10.02;7.95;;;3.30;99.90;;;;;;5073191;28;20427;-72
2022/03/07 02:27:26;;;;;;;9.25;7.40;;;3.20;99.90;;;;;;5057098;28;20067;-72
2022/03/07 02:29:54;;;;;;;10.63;8.35;;;3.20;99.90;;;;;;5054379;28;20051;-75
2022/03/07 02:32:22;;;;;;;11.93;8.75;;;3.30;99.90;;;;;;5054110;28;20052;-71
2022/03/07 02:34:49;;;;;;;11.77;7.80;;;3.30;99.90;;;;;;5052698;28;20132;-74
2022/03/07 02:37:17;;;;;;;9.80;8.20;;;3.30;99.90;;;;;;5054359;28;20047;-69
2022/03/07 02:39:45;;;;;;;10.02;8.02;;;3.40;99.90;;;;;;5053025;28;20053;-76
2022/03/07 02:42:32;;;;;;;12.82;8.13;;;3.30;99.90;;;;;;5053263;28;20400;-71
2022/03/07 02:44:59;;;;;;;11.52;8.10;;;3.30;99.90;;;;;;5036254;28;20049;-77
2022/03/07 02:47:27;;;;;;;9.98;7.25;;;3.40;99.90;;;;;;5054852;28;20412;-72
2022/03/07 02:49:54;;;;;;;8.52;6.88;;;3.40;99.90;;;;;;5053193;28;20063;-78
2022/03/07 02:52:21;;;;;;;8.23;6.82;;;3.30;99.90;;;;;;5054050;28;20041;-70
2022/03/07 02:54:49;;;;;;;13.45;7.43;;;3.30;99.90;;;;;;5052940;28;20486;-70
2022/03/07 02:57:16;;;;;;;9.45;7.35;;;3.40;99.90;;;;;;5052828;28;20496;-71
2022/03/07 02:59:46;;;;;;;11.13;8.02;;;3.40;99.90;;;;;;5052308;28;20531;-73
2022/03/07 03:02:14;;;;;;;9.90;7.65;;;3.40;99.90;;;;;;5053063;28;20120;-71
2022/03/07 03:04:41;;;;;;;10.50;7.82;;;3.40;99.90;;;;;;5053307;28;20095;-71
2022/03/07 03:07:09;;;;;;;11.98;8.73;;;3.50;99.90;;;;;;5053709;28;20040;-75
2022/03/07 03:09:36;;;;;;;13.95;8.10;;;3.40;99.90;;;;;;5052622;28;20053;-72
2022/03/07 03:12:04;;;;;;;10.25;8.25;;;3.40;99.90;;;;;;5053910;28;20047;-76
2022/03/07 03:14:31;;;;;;;10.25;8.05;;;3.40;99.90;;;;;;5052798;28;20451;-72
2022/03/07 03:16:59;;;;;;;11.00;7.43;;;3.40;99.90;;;;;;5053389;28;20055;-73
2022/03/07 03:19:26;;;;;;;8.80;7.90;;;3.40;99.90;;;;;;5052071;28;20523;-73
2022/03/07 03:21:54;;;;;;;9.65;7.72;;;3.50;99.90;;;;;;5052436;28;20083;-74
2022/03/07 03:24:21;;;;;;;9.85;7.88;;;3.40;99.90;;;;;;5053483;28;20116;-81
2022/03/07 03:26:48;;;;;;;17.60;11.80;;;3.60;99.90;;;;;;5062918;28;20091;-75
2022/03/07 03:29:17;;;;;;;26.67;17.42;;;3.70;99.90;;;;;;5055862;28;20059;-73
2022/03/07 03:31:44;;;;;;;37.55;21.23;;;3.60;99.90;;;;;;5072027;28;20403;-76
2022/03/07 03:34:12;;;;;;;35.30;21.85;;;3.60;99.90;;;;;;5073410;28;20086;-72
2022/03/07 03:36:39;;;;;;;30.60;21.55;;;3.50;99.90;;;;;;5073757;28;20041;-83
2022/03/07 03:39:06;;;;;;;35.10;20.92;;;3.40;99.90;;;;;;5074216;28;20110;-76
2022/03/07 03:41:34;;;;;;;31.40;21.70;;;3.30;99.90;;;;;;5074036;28;20495;-78
2022/03/07 03:44:01;;;;;;;36.20;22.65;;;3.30;99.90;;;;;;5071856;28;20067;-75
2022/03/07 03:46:28;;;;;;;33.40;21.17;;;3.40;99.90;;;;;;5073519;28;20052;-75
2022/03/07 03:48:55;;;;;;;32.97;20.60;;;3.50;99.90;;;;;;5072847;28;20045;-75
2022/03/07 03:51:23;;;;;;;33.78;20.85;;;3.40;99.90;;;;;;5072646;28;20043;-71
2022/03/07 03:53:50;;;;;;;35.75;22.65;;;3.50;99.90;;;;;;5073307;28;20124;-77
2022/03/07 03:56:17;;;;;;;35.40;22.08;;;3.50;99.90;;;;;;5073291;28;20047;-73
2022/03/07 03:58:44;;;;;;;33.30;22.20;;;3.50;99.90;;;;;;5072710;28;20048;-73
2022/03/07 04:01:12;;;;;;;34.17;21.45;;;3.50;99.90;;;;;;5072874;28;20474;-81
2022/03/07 04:03:39;;;;;;;31.75;20.73;;;3.60;99.90;;;;;;5072581;28;20118;-73
2022/03/07 04:06:08;;;;;;;28.77;19.20;;;3.60;99.90;;;;;;5072479;28;20365;-74
2022/03/07 04:08:49;;;;;;;31.20;19.80;;;3.60;99.90;;;;;;5054966;28;20076;-80
2022/03/07 04:11:16;;;;;;;;;;;3.60;99.90;;;;;;5052437;28;20029;-82
2022/03/07 04:13:43;;;;;;;31.63;19.88;;;3.50;99.90;;;;;;5051823;28;19948;-72
2022/03/07 04:16:11;;;;;;;31.52;20.45;;;3.40;99.90;;;;;;5052268;28;20041;-80
2022/03/07 04:18:38;;;;;;;34.10;21.17;;;3.30;99.90;;;;;;5052667;28;20451;-77
2022/03/07 04:21:05;;;;;;;31.23;20.23;;;3.40;99.90;;;;;;5051801;28;20049;-71
2022/03/07 04:23:33;;;;;;;35.50;22.10;;;3.50;99.90;;;;;;5051307;28;20068;-80
2022/03/07 04:26:00;;;;;;;30.95;20.02;;;3.60;99.90;;;;;;5053972;28;20039;-72
2022/03/07 04:28:27;;;;;;;28.17;19.25;;;3.60;99.90;;;;;;5071983;28;20443;-77
2022/03/07 04:30:54;;;;;;;29.88;19.98;;;3.40;99.90;;;;;;5071980;28;20043;-75
2022/03/07 04:33:22;;;;;;;30.73;19.27;;;3.50;99.90;;;;;;5070693;28;20392;-72
2022/03/07 04:35:49;;;;;;;28.98;18.90;;;3.60;99.90;;;;;;5072123;28;20036;-82
2022/03/07 04:38:16;;;;;;;28.63;19.13;;;3.70;99.90;;;;;;5070823;28;20045;-75
2022/03/07 04:40:44;;;;;;;28.92;18.95;;;3.70;99.90;;;;;;5072146;28;20047;-78
2022/03/07 04:43:11;;;;;;;25.55;17.48;;;3.70;99.90;;;;;;5073119;28;20476;-72
2022/03/07 04:45:38;;;;;;;24.33;17.00;;;3.50;99.90;;;;;;5071274;28;20050;-74
2022/03/07 04:48:06;;;;;;;24.40;16.73;;;3.60;99.90;;;;;;5071987;28;20063;-81
2022/03/07 04:50:33;;;;;;;28.33;18.10;;;3.70;99.90;;;;;;5054724;28;20395;-74
2022/03/07 04:53:00;;;;;;;26.65;16.77;;;3.60;99.90;;;;;;5072279;28;20047;-79
2022/03/07 04:55:28;;;;;;;14.30;10.95;;;3.60;99.90;;;;;;5072258;28;20139;-77
2022/03/07 04:57:55;;;;;;;14.05;10.05;;;3.40;99.90;;;;;;5073302;28;20048;-79
2022/03/07 05:00:22;;;;;;;12.93;9.48;;;3.50;99.90;;;;;;5072491;28;20411;-75
2022/03/07 05:02:49;;;;;;;13.85;8.90;;;3.60;99.90;;;;;;5072403;28;20419;-79
2022/03/07 05:05:18;;;;;;;15.02;9.07;;;3.70;99.90;;;;;;5055470;28;20053;-82
2022/03/07 05:07:45;;;;;;;9.73;7.22;;;3.60;99.90;;;;;;5072582;28;20044;-87
2022/03/07 05:10:12;;;;;;;9.32;7.60;;;3.60;99.90;;;;;;5071059;28;20411;-74
2022/03/07 05:12:40;;;;;;;12.95;7.38;;;3.50;99.90;;;;;;5072995;28;20047;-79
2022/03/07 05:15:07;;;;;;;10.45;6.93;;;3.40;99.90;;;;;;5072156;28;20036;-76
2022/03/07 05:17:46;;;;;;;8.75;7.00;;;3.40;99.90;;;;;;5071976;28;20052;-77
2022/03/07 05:20:15;;;;;;;16.75;10.52;;;3.40;99.90;;;;;;5070650;28;20048;-81
2022/03/07 05:22:44;;;;;;;23.20;15.27;;;3.60;99.90;;;;;;5073369;28;20044;-72
2022/03/07 05:25:13;;;;;;;24.52;17.65;;;3.70;99.90;;;;;;5070958;28;20124;-80
2022/03/07 05:27:41;;;;;;;24.80;17.63;;;3.60;99.90;;;;;;5057036;28;20037;-79
2022/03/07 05:30:13;;;;;;;27.67;19.05;;;3.70;99.90;;;;;;5051653;28;20048;-79
2022/03/07 05:32:43;;;;;;;31.67;19.83;;;3.40;99.90;;;;;;5051852;28;20055;-77
2022/03/07 05:35:12;;;;;;;29.65;19.25;;;3.50;99.90;;;;;;5051576;28;20095;-86
2022/03/07 05:37:40;;;;;;;31.33;18.02;;;3.40;99.90;;;;;;5052200;28;20064;-84
2022/03/07 05:40:09;;;;;;;28.27;18.02;;;3.50;99.90;;;;;;5051952;28;20048;-78
2022/03/07 05:42:37;;;;;;;23.70;16.35;;;3.60;99.90;;;;;;5051671;28;20049;-87
2022/03/07 05:45:08;;;;;;;29.80;18.33;;;3.60;99.90;;;;;;5035954;28;20077;-81
2022/03/07 05:47:35;;;;;;;30.35;18.42;;;3.50;99.90;;;;;;5053133;28;20048;-79
2022/03/07 05:50:04;;;;;;;28.17;18.73;;;3.50;99.90;;;;;;5053160;28;20048;-70
2022/03/07 05:52:32;;;;;;;26.15;18.90;;;3.40;99.90;;;;;;5051765;28;20047;-81
2022/03/07 05:54:59;;;;;;;28.88;20.73;;;3.50;99.90;;;;;;5050704;28;20149;-82
2022/03/07 05:57:27;;;;;;;26.05;18.20;;;3.50;99.90;;;;;;5051265;28;20119;-79
2022/03/07 05:59:54;;;;;;;29.52;18.17;;;3.50;99.90;;;;;;5033502;28;20049;-71
2022/03/07 06:02:21;;;;;;;31.52;18.77;;;3.40;99.90;;;;;;5051157;28;20063;-86
2022/03/07 06:04:49;;;;;;;28.80;19.00;;;3.60;99.90;;;;;;5050925;28;20048;-83
2022/03/07 06:07:16;;;;;;;32.22;21.02;;;3.60;99.90;;;;;;5051421;28;20135;-81
2022/03/07 06:09:44;;;;;;;33.08;21.00;;;3.80;99.90;;;;;;5051234;28;20116;-82
2022/03/07 06:12:11;;;;;;;36.00;20.60;;;3.70;99.90;;;;;;5033971;28;20052;-88
2022/03/07 06:14:38;;;;;;;41.00;24.27;;;3.90;99.90;;;;;;5051137;28;20069;-78
2022/03/07 06:17:06;;;;;;;38.88;23.83;;;4.10;99.90;;;;;;5051512;28;20060;-79
2022/03/07 06:19:33;;;;;;;41.70;23.83;;;4.10;99.90;;;;;;5048542;28;20141;-77
2022/03/07 06:22:01;;;;;;;39.55;23.58;;;4.10;99.90;;;;;;5049665;28;20041;-73
2022/03/07 06:24:29;;;;;;;36.20;21.88;;;4.00;99.90;;;;;;5049732;28;20146;-73
2022/03/07 06:26:57;;;;;;;138.77;71.22;;;4.00;99.90;;;;;;5043925;28;20044;-73
2022/03/07 06:29:24;;;;;;;81.20;44.67;;;4.00;99.90;;;;;;5040096;28;20033;-71
2022/03/07 06:31:52;;;;;;;41.50;27.48;;;4.10;99.90;;;;;;5039567;28;20049;-74
2022/03/07 06:34:19;;;;;;;37.35;22.73;;;4.10;99.90;;;;;;5039792;28;20104;-74
2022/03/07 06:36:46;;;;;;;30.38;21.02;;;4.20;99.90;;;;;;5040654;28;20049;-76
2022/03/07 06:39:14;;;;;;;34.08;22.38;;;4.40;99.90;;;;;;5047805;28;20140;-79
2022/03/07 06:41:41;;;;;;;33.05;20.60;;;4.40;99.90;;;;;;5044342;28;20136;-72
2022/03/07 06:44:08;;;;;;;31.13;20.17;;;4.50;99.90;;;;;;5049298;28;20524;-78
2022/03/07 06:46:36;;;;;;;30.13;18.80;;;4.40;99.90;;;;;;5042517;28;20102;-73
2022/03/07 06:49:03;;;;;;;25.13;17.40;;;4.30;99.90;;;;;;5040947;28;20049;-73
2022/03/07 06:51:31;;;;;;;27.13;18.98;;;4.40;99.90;;;;;;5045624;28;20509;-76
2022/03/07 06:53:58;;;;;;;27.48;18.13;;;4.40;99.90;;;;;;5040280;28;20048;-74
2022/03/07 06:56:26;;;;;;;28.23;18.58;;;4.30;99.90;;;;;;5035390;28;20462;-74
2022/03/07 06:58:53;;;;;;;31.50;19.80;;;4.30;99.90;;;;;;5052877;28;20149;-78
2022/03/07 07:01:20;;;;;;;27.48;18.20;;;4.50;99.90;;;;;;5042611;28;20049;-73
2022/03/07 07:03:48;;;;;;;26.05;17.90;;;4.20;99.90;;;;;;5024070;28;20033;-72
2022/03/07 07:06:15;;;;;;;40.03;24.30;;;4.40;99.90;;;;;;5043490;28;20409;-71
2022/03/07 07:08:42;;;;;;;59.42;33.65;;;5.00;99.90;;;;;;5046460;28;20037;-71
2022/03/07 07:11:10;;;;;;;33.85;20.95;;;5.40;99.90;;;;;;5049831;28;20132;-71
2022/03/07 07:13:40;;;;;;;29.63;19.33;;;4.70;99.90;;;;;;5040592;28;20116;-73
2022/03/07 07:16:08;;;;;;;29.80;19.52;;;4.30;99.90;;;;;;5040947;28;20121;-73
2022/03/07 07:18:36;;;;;;;31.63;20.17;;;4.20;99.90;;;;;;5032112;28;20440;-77
2022/03/07 07:21:04;;;;;;;27.05;17.48;;;4.00;99.90;;;;;;5032494;28;20065;-77
2022/03/07 07:23:31;;;;;;;28.48;17.05;;;4.00;99.90;;;;;;5048980;28;20049;-70
2022/03/07 07:25:58;;;;;;;28.02;18.15;;;4.00;99.90;;;;;;5040166;28;20592;-73
2022/03/07 07:28:26;;;;;;;28.48;18.90;;;4.10;99.90;;;;;;5031887;28;20404;-73
2022/03/07 07:30:53;;;;;;;29.15;18.55;;;4.20;99.90;;;;;;5032185;28;20060;-72
2022/03/07 07:33:21;;;;;;;29.98;18.70;;;4.00;99.90;;;;;;5032068;28;20053;-69
2022/03/07 07:35:48;;;;;;;30.35;19.98;;;3.90;99.90;;;;;;5032203;28;20096;-70
2022/03/07 07:38:16;;;;;;;29.23;20.58;;;3.90;99.90;;;;;;5015663;28;20041;-75
2022/03/07 07:40:43;;;;;;;28.42;19.67;;;4.00;99.90;;;;;;5031407;28;20049;-74
2022/03/07 07:43:10;;;;;;;31.20;20.25;;;4.20;99.90;;;;;;5050420;28;20374;-79
2022/03/07 07:45:38;;;;;;;30.98;21.67;;;4.40;99.90;;;;;;5048794;28;20037;-77
2022/03/07 07:48:05;;;;;;;30.70;19.60;;;4.70;99.90;;;;;;5042076;28;20041;-76
2022/03/07 07:50:33;;;;;;;31.10;19.63;;;4.80;99.90;;;;;;5033922;28;20053;-74
2022/03/07 07:53:00;;;;;;;29.42;19.27;;;5.00;99.90;;;;;;5051542;28;20052;-70
2022/03/07 07:55:28;;;;;;;25.25;17.77;;;5.10;99.90;;;;;;5051124;28;20060;-73
2022/03/07 07:57:56;;;;;;;26.88;18.73;;;5.20;99.90;;;;;;5031280;28;20507;-80
2022/03/07 08:00:23;;;;;;;28.60;19.48;;;5.30;99.90;;;;;;5015113;28;20416;-76
2022/03/07 08:02:51;;;;;;;25.73;17.48;;;5.30;99.90;;;;;;5031058;28;20643;-80
2022/03/07 08:05:19;;;;;;;24.80;17.85;;;5.30;99.90;;;;;;5015139;28;20044;-73
2022/03/07 08:07:47;;;;;;;23.65;16.83;;;5.50;99.90;;;;;;5030468;28;20041;-77
2022/03/07 08:10:16;;;;;;;26.60;16.27;;;5.50;99.90;;;;;;5032147;28;20061;-74
2022/03/07 08:12:45;;;;;;;23.55;16.17;;;5.60;99.90;;;;;;5032580;28;20080;-76
2022/03/07 08:15:17;;;;;;;23.33;15.38;;;5.60;99.90;;;;;;5031885;28;20155;-76
2022/03/07 08:17:50;;;;;;;18.55;13.15;;;5.70;99.90;;;;;;5031666;28;20063;-76
2022/03/07 08:20:20;;;;;;;19.73;14.05;;;5.80;99.90;;;;;;5031657;28;20112;-76
2022/03/07 08:22:48;;;;;;;22.85;14.38;;;5.70;99.90;;;;;;5030810;28;20060;-76
2022/03/07 08:25:16;;;;;;;22.40;14.35;;;5.70;99.90;;;;;;5014160;28;20794;-75
2022/03/07 08:27:43;;;;;;;19.85;14.30;;;5.80;99.90;;;;;;5017736;28;20064;-74
2022/03/07 08:30:13;;;;;;;25.02;15.93;;;5.90;99.90;;;;;;5031726;28;20041;-72
2022/03/07 08:32:42;;;;;;;25.05;15.63;;;5.90;99.90;;;;;;5031991;28;20409;-77
2022/03/07 08:35:11;;;;;;;21.90;15.10;;;5.80;99.90;;;;;;5014445;28;20060;-78
2022/03/07 08:37:45;;;;;;;22.67;16.15;;;5.90;99.90;;;;;;5030247;28;20060;-76
2022/03/07 08:40:15;;;;;;;21.67;14.45;;;6.00;99.90;;;;;;5031706;28;20128;-77
2022/03/07 08:42:43;;;;;;;26.85;16.67;;;5.90;99.90;;;;;;5030488;28;20127;-77
2022/03/07 08:45:16;;;;;;;165.23;87.70;;;6.20;99.90;;;;;;5031767;28;20493;-75
2022/03/07 08:47:43;;;;;;;34.85;25.85;;;6.60;99.90;;;;;;5030524;28;20042;-77
2022/03/07 08:50:11;;;;;;;30.02;19.55;;;6.50;99.90;;;;;;5031386;28;20129;-74
2022/03/07 08:52:39;;;;;;;26.60;17.77;;;5.70;99.90;;;;;;5030612;28;20067;-76
2022/03/07 08:55:08;;;;;;;26.33;17.17;;;5.60;99.90;;;;;;5031543;28;20091;-73
2022/03/07 08:57:36;;;;;;;24.65;16.92;;;5.60;99.90;;;;;;5031462;28;20036;-74
2022/03/07 09:00:10;;;;;;;20.40;14.95;;;5.70;99.90;;;;;;5029160;28;20053;-75
2022/03/07 09:02:46;;;;;;;24.15;15.55;;;5.80;99.90;;;;;;5031474;28;20401;-76
2022/03/07 09:05:14;;;;;;;18.15;14.15;;;5.90;99.90;;;;;;5013999;28;20053;-77
2022/03/07 09:07:41;;;;;;;19.20;13.40;;;5.80;99.90;;;;;;5030182;28;20142;-77
2022/03/07 09:10:09;;;;;;;20.67;12.93;;;5.70;99.90;;;;;;5029552;28;20069;-77
2022/03/07 09:12:36;;;;;;;22.90;15.30;;;5.10;99.90;;;;;;5030272;28;20480;-75
2022/03/07 09:15:09;;;;;;;23.67;16.27;;;4.70;99.90;;;;;;5029930;28;20052;-75
2022/03/07 09:17:38;;;;;;;25.38;15.50;;;4.70;99.90;;;;;;5029926;28;20053;-77
2022/03/07 09:20:07;;;;;;;;;;;4.80;99.90;;;;;;5031297;28;20052;-75
2022/03/07 09:22:35;;;;;;;21.83;14.82;;;4.70;99.90;;;;;;5031374;28;20035;-74
2022/03/07 09:25:05;;;;;;;26.75;17.70;;;4.70;99.90;;;;;;5029769;28;20501;-75
2022/03/07 09:27:32;;;;;;;27.75;17.08;;;4.50;99.90;;;;;;5029757;28;20120;-74
2022/03/07 09:29:59;;;;;;;26.55;16.95;;;4.60;99.90;;;;;;5030805;28;20033;-75
2022/03/07 09:32:27;;;;;;;27.23;17.83;;;4.40;99.90;;;;;;5031210;28;20051;-75
2022/03/07 09:34:54;;;;;;;29.42;18.15;;;4.30;99.90;;;;;;5029737;28;20070;-74
2022/03/07 09:37:21;;;;;;;25.48;16.50;;;4.20;99.90;;;;;;5029656;28;20627;-77
2022/03/07 09:39:49;;;;;;;27.85;17.70;;;4.60;99.90;;;;;;5029148;28;20048;-76
2022/03/07 09:42:16;;;;;;;27.10;16.60;;;4.70;99.90;;;;;;5013249;28;20045;-76
2022/03/07 09:44:44;;;;;;;26.35;17.05;;;4.80;99.90;;;;;;5030618;28;20057;-76
2022/03/07 09:47:12;;;;;;;27.35;17.90;;;4.90;99.90;;;;;;5029756;28;20057;-77
2022/03/07 09:49:40;;;;;;;28.50;18.65;;;5.10;99.90;;;;;;5030197;28;20420;-75
2022/03/07 09:52:07;;;;;;;33.60;21.60;;;5.20;99.90;;;;;;5029923;28;20048;-76
2022/03/07 09:54:36;;;;;;;34.47;22.50;;;5.40;99.90;;;;;;5030812;28;20081;-76
2022/03/07 09:57:04;;;;;;;35.10;20.77;;;5.60;99.90;;;;;;5029703;28;20033;-75
2022/03/07 09:59:34;;;;;;;36.45;23.20;;;5.70;99.90;;;;;;5029438;28;20045;-74
2022/03/07 10:02:14;;;;;;;164.82;84.95;;;5.30;99.90;;;;;;5029968;28;20048;-75
2022/03/07 10:04:44;;;;;;;39.55;26.00;;;5.60;99.90;;;;;;5030288;28;20512;-75
2022/03/07 10:07:12;;;;;;;40.70;23.45;;;5.70;99.90;;;;;;5029739;28;20038;-75
2022/03/07 10:09:41;;;;;;;37.22;24.58;;;5.90;99.90;;;;;;5030466;28;20060;-74
2022/03/07 10:12:09;;;;;;;31.92;23.20;;;5.50;99.90;;;;;;5032772;28;20041;-75
2022/03/07 10:14:45;;;;;;;32.72;20.55;;;5.80;99.90;;;;;;5033983;28;20512;-74
2022/03/07 10:17:31;;;;;;;32.70;21.92;;;6.00;99.90;;;;;;5034285;28;20064;-73
2022/03/07 10:20:04;;;;;;;26.88;18.60;;;6.10;99.90;;;;;;5032849;28;20462;-75
2022/03/07 10:22:45;;;;;;;24.02;18.00;;;6.30;99.90;;;;;;5034285;28;20495;-75
2022/03/07 10:25:13;;;;;;;25.00;17.77;;;6.60;99.90;;;;;;5032610;28;20403;-77
2022/03/07 10:27:49;;;;;;;22.52;16.58;;;6.70;99.90;;;;;;5065134;28;20147;-76
2022/03/07 10:30:25;;;;;;;21.25;15.80;;;6.60;99.90;;;;;;5072958;28;20127;-75
2022/03/07 10:33:01;;;;;;;25.10;17.35;;;6.20;99.90;;;;;;5056289;28;20052;-76
2022/03/07 10:35:30;;;;;;;31.67;18.15;;;6.30;99.90;;;;;;5055947;28;20070;-75
2022/03/07 10:38:07;;;;;;;25.23;17.77;;;6.50;99.90;;;;;;5072778;28;20036;-79
2022/03/07 10:40:39;;;;;;;25.52;17.95;;;6.50;99.90;;;;;;5073190;28;20048;-76
2022/03/07 10:43:07;;;;;;;27.02;18.05;;;6.80;99.90;;;;;;5036665;28;20066;-73
2022/03/07 10:45:46;;;;;;;23.30;17.05;;;7.00;99.90;;;;;;5040881;28;20057;-75
2022/03/07 10:48:15;;;;;;;26.75;18.95;;;7.10;99.90;;;;;;5040720;28;20432;-75
2022/03/07 10:50:51;;;;;;;27.45;18.33;;;7.20;99.90;;;;;;5041124;28;20408;-75
2022/03/07 10:53:19;;;;;;;26.48;18.05;;;7.50;99.90;;;;;;5051351;28;20699;-76
2022/03/07 10:55:58;;;;;;;27.65;18.85;;;7.50;99.90;;;;;;5051625;28;20504;-76
2022/03/07 10:58:27;;;;;;;19.63;14.23;;;6.70;99.90;;;;;;5033683;28;20079;-76
2022/03/07 11:01:00;;;;;;;20.08;14.30;;;6.30;99.90;;;;;;5033944;28;20060;-76
2022/03/07 11:03:30;;;;;;;26.52;16.45;;;6.20;99.90;;;;;;5032279;28;20051;-74
2022/03/07 11:05:59;;;;;;;21.23;14.85;;;6.80;99.90;;;;;;5033453;28;20103;-73
2022/03/07 11:08:29;;;;;;;18.55;12.82;;;7.10;99.90;;;;;;5033634;28;20460;-77
2022/03/07 11:10:59;;;;;;;21.70;15.00;;;7.30;99.90;;;;;;5033120;28;20140;-74
2022/03/07 11:13:29;;;;;;;24.27;15.48;;;7.50;99.90;;;;;;5033154;28;20045;-78
2022/03/07 11:16:02;;;;;;;30.27;17.83;;;7.40;99.90;;;;;;5032951;28;20076;-77
2022/03/07 11:18:31;;;;;;;30.40;18.33;;;8.00;99.90;;;;;;5032879;28;20081;-74
2022/03/07 11:21:00;;;;;;;20.60;14.55;;;8.40;99.90;;;;;;5032279;28;20132;-75
2022/03/07 11:23:28;;;;;;;20.65;13.80;;;8.60;99.90;;;;;;5032572;28;20052;-75
2022/03/07 11:25:59;;;;;;;24.65;15.02;;;8.50;99.90;;;;;;5032799;28;20038;-75
2022/03/07 11:28:28;;;;;;;19.83;13.70;;;8.70;99.90;;;;;;5033245;28;20084;-74
2022/03/07 11:30:56;;;;;;;20.73;13.90;;;8.90;99.90;;;;;;5031696;28;20050;-75
2022/03/07 11:33:33;;;;;;;16.30;11.85;;;8.70;99.90;;;;;;5033057;28;20120;-74
2022/03/07 11:36:04;;;;;;;12.15;9.45;;;8.10;99.90;;;;;;5031620;28;20100;-76
2022/03/07 11:38:32;;;;;;;15.52;10.63;;;7.30;99.90;;;;;;5031807;28;20033;-75
2022/03/07 11:41:01;;;;;;;15.70;11.60;;;7.10;99.90;;;;;;5032753;28;20432;-76
2022/03/07 11:43:31;;;;;;;18.00;13.02;;;7.30;99.90;;;;;;5032637;28;20048;-75
2022/03/07 11:46:01;;;;;;;21.35;13.77;;;7.90;99.90;;;;;;5039888;28;20048;-75
2022/03/07 11:48:44;;;;;;;21.83;13.45;;;8.40;99.90;;;;;;5040894;28;20033;-75
2022/03/07 11:51:20;;;;;;;17.48;10.55;;;8.50;99.90;;;;;;5041239;28;20045;-76
2022/03/07 11:53:49;;;;;;;15.48;10.68;;;7.70;99.90;;;;;;5038572;28;20072;-73
2022/03/07 11:56:25;;;;;;;19.23;12.52;;;7.30;99.90;;;;;;5036818;28;20037;-72
2022/03/07 11:58:55;;;;;;;17.48;11.70;;;7.80;99.90;;;;;;5042968;28;20459;-75
2022/03/07 12:01:30;;;;;;;18.35;12.85;;;8.30;99.90;;;;;;5052384;28;20463;-73
2022/03/07 12:04:15;;;;;;;19.65;12.32;;;8.70;99.90;;;;;;5052315;28;20049;-73
2022/03/07 12:06:51;;;;;;;17.50;13.00;;;9.00;99.90;;;;;;5052193;28;20041;-73
2022/03/07 12:09:35;;;;;;;16.17;12.07;;;9.00;99.90;;;;;;5052430;28;20048;-74
2022/03/07 12:12:08;;;;;;;16.45;12.07;;;8.60;99.90;;;;;;5040134;28;20132;-73
2022/03/07 12:14:38;;;;;;;19.98;12.80;;;8.50;99.90;;;;;;5031361;28;20943;-73
2022/03/07 12:17:23;;;;;;;17.17;12.10;;;8.50;99.90;;;;;;5032094;28;20496;-72
2022/03/07 12:19:55;;;;;;;21.90;12.23;;;8.70;99.90;;;;;;5031244;28;20401;-74
2022/03/07 12:22:25;;;;;;;19.55;12.98;;;8.80;99.90;;;;;;5036902;28;20380;-74
2022/03/07 12:24:54;;;;;;;18.40;12.02;;;8.70;99.90;;;;;;5030817;28;20045;-74
2022/03/07 12:27:23;;;;;;;18.38;12.65;;;8.20;99.90;;;;;;5056171;28;20036;-73
2022/03/07 12:29:51;;;;;;;22.70;13.43;;;7.80;99.90;;;;;;5071902;28;20119;-73
2022/03/07 12:32:19;;;;;;;20.13;12.63;;;7.90;99.90;;;;;;5071907;28;20476;-75
2022/03/07 12:34:47;;;;;;;20.55;14.75;;;7.80;99.90;;;;;;5070965;28;20068;-73
2022/03/07 12:37:20;;;;;;;21.23;14.32;;;8.00;99.90;;;;;;5071853;28;20046;-74
2022/03/07 12:39:53;;;;;;;27.40;15.85;;;8.10;99.90;;;;;;5071634;28;20044;-73
2022/03/07 12:42:25;;;;;;;21.55;14.95;;;8.00;99.90;;;;;;5042365;28;20048;-74
2022/03/07 12:44:54;;;;;;;25.75;15.68;;;7.80;99.90;;;;;;5031531;28;20037;-74
2022/03/07 12:47:31;;;;;;;26.63;17.23;;;7.80;99.90;;;;;;5031930;28;20543;-74
2022/03/07 12:49:59;;;;;;;22.67;15.23;;;7.80;99.90;;;;;;5031902;28;20552;-73
2022/03/07 12:52:30;;;;;;;22.17;14.88;;;7.80;99.90;;;;;;5030644;28;20137;-72